createdAt,value
2022-09-20T00:00:11.852Z,100874.28
2022-09-20T00:02:39.432Z,100880.75
2022-09-20T00:05:14.913Z,100882.41
2022-09-20T00:07:56.983Z,100887.25
2022-09-20T00:10:27.640Z,100884.03
2022-09-20T00:12:59.844Z,100879.56
2022-09-20T00:15:29.399Z,100888.47
2022-09-20T00:17:59.995Z,100888.47
2022-09-20T00:20:29.771Z,100890.91
2022-09-20T00:23:00.091Z,100883.19
2022-09-20T00:25:27.813Z,100884.84
2022-09-20T00:27:57.364Z,100893.34
2022-09-20T00:30:31.024Z,100888.06
2022-09-20T00:33:01.660Z,100888.88
2022-09-20T00:35:34.043Z,100892.94
2022-09-20T00:38:01.816Z,100894.56
2022-09-20T00:40:30.286Z,100881.59
2022-09-20T00:43:01.063Z,100877.16
2022-09-20T00:45:33.466Z,100875.53
2022-09-20T00:48:11.709Z,100871.88
2022-09-20T00:50:45.333Z,100869.84
2022-09-20T00:53:26.928Z,100868.25
2022-09-20T00:56:02.031Z,100875.13
2022-09-20T00:58:38.299Z,100873.50
2022-09-20T01:01:09.646Z,100880.41
2022-09-20T01:03:43.428Z,100867.44
2022-09-20T01:06:16.529Z,100865.81
2022-09-20T01:08:53.378Z,100869.84
2022-09-20T01:11:25.667Z,100874.69
2022-09-20T01:13:58.084Z,100882.34
2022-09-20T01:16:30.331Z,100877.88
2022-09-20T01:19:02.895Z,100885.53
2022-09-20T01:21:31.317Z,100885.53
2022-09-20T01:24:46.571Z,100887.16
2022-09-20T01:27:45.387Z,100889.19
2022-09-20T01:30:22.438Z,100888.72
2022-09-20T01:33:20.909Z,100885.50
2022-09-20T01:35:54.420Z,100889.50
2022-09-20T01:38:43.153Z,100887.03
2022-09-20T01:41:38.527Z,100894.31
2022-09-20T01:44:09.154Z,100887.03
2022-09-20T01:46:42.393Z,100893.91
2022-09-20T01:49:22.197Z,100893.91
2022-09-20T01:52:14.550Z,100894.69
2022-09-20T01:54:59.601Z,100895.53
2022-09-20T01:57:52.242Z,100891.84
2022-09-20T02:00:54.636Z,100892.69
2022-09-20T02:03:37.484Z,100891.81
2022-09-20T02:06:32.686Z,100890.22
2022-09-20T02:09:18.096Z,100899.16
2022-09-20T02:12:04.437Z,100901.09
2022-09-20T02:14:49.716Z,100901.56
2022-09-20T02:17:27.236Z,100903.19
2022-09-20T02:20:23.343Z,100900.38
2022-09-20T02:23:09.088Z,100910.44
2022-09-20T02:26:18.565Z,100904.84
2022-09-20T02:29:07.691Z,100901.72
2022-09-20T02:31:51.783Z,100902.53
2022-09-20T02:34:38.305Z,100895.28
2022-09-20T02:37:25.641Z,100901.78
2022-09-20T02:40:20.287Z,100900.59
2022-09-20T02:43:02.204Z,100887.25
2022-09-20T02:45:44.897Z,100890.91
2022-09-20T02:48:16.647Z,100894.56
2022-09-20T02:51:09.245Z,100902.66
2022-09-20T02:54:02.887Z,100889.69
2022-09-20T02:56:36.989Z,100896.19
2022-09-20T02:59:32.797Z,100894.16
2022-09-20T03:02:36.354Z,100886.47
2022-09-20T03:05:44.761Z,100898.22
2022-09-20T03:08:22.057Z,100903.88
2022-09-20T03:11:01.785Z,100891.31
2022-09-20T03:14:08.072Z,100894.16
2022-09-20T03:17:03.193Z,100893.38
2022-09-20T03:20:05.713Z,100890.13
2022-09-20T03:23:01.341Z,100886.47
2022-09-20T03:25:52.008Z,100899.03
2022-09-20T03:28:28.257Z,100888.13
2022-09-20T03:31:06.915Z,100894.19
2022-09-20T03:34:07.563Z,100891.34
2022-09-20T03:36:41.190Z,100895.41
2022-09-20T03:39:11.803Z,100898.22
2022-09-20T03:41:40.211Z,100899.00
2022-09-20T03:44:46.860Z,100899.03
2022-09-20T03:47:36.844Z,100905.88
2022-09-20T03:50:16.512Z,100904.69
2022-09-20T03:53:15.154Z,100891.72
2022-09-20T03:56:23.402Z,100903.47
2022-09-20T03:59:22.632Z,100890.53
2022-09-20T04:02:19.257Z,100907.09
2022-09-20T04:05:09.468Z,100899.41
2022-09-20T04:08:09.330Z,100898.59
2022-09-20T04:11:04.404Z,100896.19
2022-09-20T04:13:39.795Z,100902.66
2022-09-20T04:16:16.669Z,100901.44
2022-09-20T04:19:00.266Z,100906.69
2022-09-20T04:21:46.572Z,100914.00
2022-09-20T04:24:30.041Z,100915.19
2022-09-20T04:27:06.080Z,100919.66
2022-09-20T04:30:03.829Z,100911.97
2022-09-20T04:32:35.821Z,100922.09
2022-09-20T04:35:50.891Z,100924.91
2022-09-20T04:38:24.892Z,100924.09
2022-09-20T04:41:17.403Z,100932.19
2022-09-20T04:44:14.422Z,100930.16
2022-09-20T04:47:05.940Z,100935.84
2022-09-20T04:50:06.466Z,100938.66
2022-09-20T04:53:29.782Z,100937.84
2022-09-20T04:56:22.362Z,100945.56
2022-09-20T04:59:05.991Z,100945.97
2022-09-20T05:01:59.275Z,100954.47
2022-09-20T05:04:51.743Z,100951.22
2022-09-20T05:07:37.959Z,100960.53
2022-09-20T05:10:40.343Z,100962.97
2022-09-20T05:13:17.091Z,100967.41
2022-09-20T05:16:02.026Z,100979.13
2022-09-20T05:18:35.769Z,100975.91
2022-09-20T05:21:36.559Z,100971.47
2022-09-20T05:24:31.482Z,100974.69
2022-09-20T05:27:06.941Z,100975.09
2022-09-20T05:29:49.574Z,100987.63
2022-09-20T05:32:30.585Z,100986.44
2022-09-20T05:35:25.469Z,100986.03
2022-09-20T05:38:12.730Z,100996.94
2022-09-20T05:41:09.428Z,100996.97
2022-09-20T05:44:07.490Z,101003.81
2022-09-20T05:46:50.898Z,101016.81
2022-09-20T05:49:47.225Z,101022.47
2022-09-20T05:52:45.017Z,101024.88
2022-09-20T05:55:34.018Z,101026.47
2022-09-20T05:58:39.834Z,101026.84
2022-09-20T06:01:13.524Z,101030.47
2022-09-20T06:03:55.837Z,101032.47
2022-09-20T06:06:54.501Z,101033.34
2022-09-20T06:09:47.022Z,101033.34
2022-09-20T06:12:31.637Z,101032.91
2022-09-20T06:15:21.643Z,101029.69
2022-09-20T06:18:20.837Z,101027.28
2022-09-20T06:20:53.954Z,101030.53
2022-09-20T06:23:24.892Z,101039.13
2022-09-20T06:26:10.427Z,101035.03
2022-09-20T06:29:09.294Z,101030.97
2022-09-20T06:31:45.982Z,101039.06
2022-09-20T06:34:17.752Z,101033.75
2022-09-20T06:37:13.594Z,101034.63
2022-09-20T06:40:14.383Z,101035.88
2022-09-20T06:42:50.026Z,101033.88
2022-09-20T06:45:23.642Z,101029.84
2022-09-20T06:47:58.978Z,101028.88
2022-09-20T06:50:32.820Z,101024.81
2022-09-20T06:53:07.357Z,101021.63
2022-09-20T06:55:44.983Z,101021.19
2022-09-20T06:58:15.517Z,101027.66
2022-09-20T07:00:49.304Z,101029.50
2022-09-20T07:03:25.672Z,101035.22
2022-09-20T07:06:04.468Z,101033.59
2022-09-20T07:08:36.886Z,101036.47
2022-09-20T07:11:16.440Z,101026.19
2022-09-20T07:13:54.439Z,101034.56
2022-09-20T07:16:26.760Z,101027.84
2022-09-20T07:19:01.022Z,101038.84
2022-09-20T07:21:32.520Z,101033.34
2022-09-20T07:24:07.794Z,101043.22
2022-09-20T07:26:54.674Z,101034.19
2022-09-20T07:29:25.906Z,101038.06
2022-09-20T07:32:00.135Z,101034.88
2022-09-20T07:34:27.788Z,101042.09
2022-09-20T07:37:00.647Z,101044.50
2022-09-20T07:39:32.131Z,101055.25
2022-09-20T07:42:08.643Z,101045.13
2022-09-20T07:44:38.515Z,101050.16
2022-09-20T07:47:15.113Z,101046.44
2022-09-20T07:49:48.372Z,101045.38
2022-09-20T07:52:22.250Z,101055.91
2022-09-20T07:54:54.067Z,101058.63
2022-09-20T07:57:26.981Z,101044.97
2022-09-20T07:59:57.783Z,101055.47
2022-09-20T08:02:28.837Z,101048.19
2022-09-20T08:05:05.203Z,101058.94
2022-09-20T08:07:35.853Z,101057.94
2022-09-20T08:10:10.365Z,101063.41
2022-09-20T08:15:34.843Z,101058.63
2022-09-20T08:18:05.514Z,101074.53
2022-09-20T08:20:40.793Z,101069.31
2022-09-20T08:23:22.965Z,101070.28
2022-09-20T08:25:58.411Z,101073.41
2022-09-20T08:28:32.750Z,101065.84
2022-09-20T08:31:12.507Z,101079.50
2022-09-20T08:33:43.737Z,101077.06
2022-09-20T08:36:22.209Z,101069.63
2022-09-20T08:42:16.905Z,101062.00
2022-09-20T08:44:58.626Z,101064.91
2022-09-20T08:47:37.923Z,101069.59
2022-09-20T08:50:18.634Z,101066.66
2022-09-20T08:52:49.399Z,101060.66
2022-09-20T08:55:25.975Z,101063.09
2022-09-20T08:58:01.463Z,101063.09
2022-09-20T09:00:36.465Z,101048.66
2022-09-20T09:03:17.717Z,101055.66
2022-09-20T09:05:55.089Z,101059.75
2022-09-20T09:08:37.709Z,101060.31
2022-09-20T09:11:16.188Z,101061.56
2022-09-20T09:14:27.345Z,101058.34
2022-09-20T09:16:55.377Z,101053.28
2022-09-20T09:19:34.409Z,101059.44
2022-09-20T09:22:07.746Z,101058.41
2022-09-20T09:24:37.757Z,101058.13
2022-09-20T09:27:18.968Z,101051.16
2022-09-20T09:29:56.545Z,101042.63
2022-09-20T09:32:37.718Z,101041.16
2022-09-20T09:35:30.862Z,101035.91
2022-09-20T09:38:01.599Z,101040.81
2022-09-20T09:40:34.642Z,101038.84
2022-09-20T09:43:24.017Z,101035.06
2022-09-20T09:45:58.439Z,101039.16
2022-09-20T09:48:33.504Z,101034.34
2022-09-20T09:51:23.763Z,101034.34
2022-09-20T09:53:56.283Z,101035.69
2022-09-20T09:56:50.237Z,101026.38
2022-09-20T09:59:33.144Z,101036.19
2022-09-20T10:02:36.981Z,101024.66
2022-09-20T10:05:23.355Z,101030.34
2022-09-20T10:08:25.326Z,101025.56
2022-09-20T10:11:13.223Z,101018.44
2022-09-20T10:14:11.629Z,101023.75
2022-09-20T10:17:12.526Z,101017.34
2022-09-20T10:20:03.743Z,101017.72
2022-09-20T10:23:06.698Z,101009.06
2022-09-20T10:25:52.368Z,101002.84
2022-09-20T10:28:35.867Z,101001.63
2022-09-20T10:31:25.054Z,101007.00
2022-09-20T10:34:28.201Z,101006.34
2022-09-20T10:37:01.069Z,100998.22
2022-09-20T10:39:34.692Z,101001.16
2022-09-20T10:42:21.293Z,100993.44
2022-09-20T10:48:57.661Z,100988.16
2022-09-20T10:51:35.335Z,100997.84
2022-09-20T10:54:14.728Z,100992.19
2022-09-20T10:56:57.152Z,100992.84
2022-09-20T10:59:44.626Z,100985.84
2022-09-20T11:02:20.930Z,100993.16
2022-09-20T11:05:00.821Z,100988.34
2022-09-20T11:07:50.325Z,100977.63
2022-09-20T11:10:29.061Z,100977.97
2022-09-20T11:13:06.817Z,100979.63
2022-09-20T11:15:56.287Z,100989.88
2022-09-20T11:18:45.036Z,100981.84
2022-09-20T11:21:42.847Z,100983.41
2022-09-20T11:24:33.251Z,100981.44
2022-09-20T11:27:29.732Z,100979.44
2022-09-20T11:30:23.409Z,100978.66
2022-09-20T11:33:03.837Z,100976.22
2022-09-20T11:35:49.398Z,100978.69
2022-09-20T11:38:44.119Z,100978.66
2022-09-20T11:41:33.365Z,100972.97
2022-09-20T11:44:21.487Z,100974.22
2022-09-20T11:46:56.125Z,100968.16
2022-09-20T11:49:53.446Z,100964.53
2022-09-20T11:52:53.161Z,100966.16
2022-09-20T11:55:44.843Z,100958.47
2022-09-20T11:58:26.734Z,100950.38
2022-09-20T12:01:02.856Z,100954.81
2022-09-20T12:03:43.580Z,100957.22
2022-09-20T12:06:38.846Z,100947.91
2022-09-20T12:09:26.837Z,100938.97
2022-09-20T12:12:17.554Z,100947.09
2022-09-20T12:14:57.377Z,100947.50
2022-09-20T12:17:49.898Z,100933.34
2022-09-20T12:20:43.216Z,100939.41
2022-09-20T12:23:45.402Z,100929.25
2022-09-20T12:26:21.017Z,100922.75
2022-09-20T12:29:34.317Z,100923.94
2022-09-20T12:32:26.597Z,100923.19
2022-09-20T12:34:57.428Z,100915.47
2022-09-20T12:37:27.056Z,100923.56
2022-09-20T12:40:01.126Z,100913.88
2022-09-20T12:42:33.630Z,100915.50
2022-09-20T12:45:17.011Z,100920.38
2022-09-20T12:47:59.445Z,100909.44
2022-09-20T12:50:51.709Z,100907.81
2022-09-20T12:53:22.637Z,100911.88
2022-09-20T12:56:06.589Z,100899.28
2022-09-20T12:58:48.284Z,100904.19
2022-09-20T13:01:18.829Z,100898.53
2022-09-20T13:04:15.236Z,100898.09
2022-09-20T13:06:52.340Z,100899.31
2022-09-20T13:09:21.484Z,100892.00
2022-09-20T13:12:01.601Z,100890.34
2022-09-20T13:14:34.273Z,100883.06
2022-09-20T13:17:28.247Z,100891.19
2022-09-20T13:20:02.072Z,100887.13
2022-09-20T13:22:45.692Z,100881.50
2022-09-20T13:25:29.538Z,100883.91
2022-09-20T13:28:42.603Z,100881.88
2022-09-20T13:31:35.634Z,100868.50
2022-09-20T13:34:44.627Z,100877.41
2022-09-20T13:37:23.785Z,100867.31
2022-09-20T13:40:01.729Z,100867.72
2022-09-20T13:42:40.806Z,100858.38
2022-09-20T13:45:18.825Z,100860.38
2022-09-20T13:47:56.796Z,100853.06
2022-09-20T13:50:29.865Z,100854.25
2022-09-20T13:53:33.593Z,100848.22
2022-09-20T13:56:23.585Z,100840.88
2022-09-20T13:59:01.129Z,100842.47
2022-09-20T14:01:38.619Z,100831.97
2022-09-20T14:04:21.576Z,100827.91
2022-09-20T14:06:57.115Z,100825.09
2022-09-20T14:09:33.221Z,100836.44
2022-09-20T14:12:14.686Z,100836.78
2022-09-20T14:14:50.912Z,100834.34
2022-09-20T14:17:31.236Z,100830.63
2022-09-20T14:20:01.902Z,100829.78
2022-09-20T14:22:31.840Z,100823.22
2022-09-20T14:25:29.483Z,100825.94
2022-09-20T14:28:19.691Z,100819.00
2022-09-20T14:30:50.789Z,100818.47
2022-09-20T14:33:21.293Z,100824.72
2022-09-20T14:35:51.919Z,100815.72
2022-09-20T14:38:29.439Z,100815.50
2022-09-20T14:40:59.619Z,100825.25
2022-09-20T14:43:40.490Z,100809.47
2022-09-20T14:46:22.237Z,100815.28
2022-09-20T14:48:55.700Z,100806.88
2022-09-20T14:51:32.136Z,100814.22
2022-09-20T14:54:07.061Z,100809.69
2022-09-20T14:56:57.679Z,100807.72
2022-09-20T14:59:36.777Z,100810.59
2022-09-20T15:02:23.733Z,100803.84
2022-09-20T15:05:07.824Z,100806.88
2022-09-20T15:07:45.800Z,100805.09
2022-09-20T15:10:28.209Z,100799.16
2022-09-20T15:13:01.205Z,100801.66
2022-09-20T15:15:34.948Z,100800.03
2022-09-20T15:18:20.147Z,100801.59
2022-09-20T15:20:57.340Z,100797.03
2022-09-20T15:23:25.390Z,100797.69
2022-09-20T15:25:57.203Z,100796.72
2022-09-20T15:28:33.909Z,100800.47
2022-09-20T15:31:15.299Z,100797.66
2022-09-20T15:33:54.388Z,100794.50
2022-09-20T15:36:31.977Z,100794.13
2022-09-20T15:39:02.927Z,100795.84
2022-09-20T15:41:36.736Z,100791.47
2022-09-20T15:44:19.909Z,100787.06
2022-09-20T15:46:58.453Z,100791.91
2022-09-20T15:49:28.832Z,100791.88
2022-09-20T15:52:02.481Z,100789.06
2022-09-20T15:54:33.740Z,100789.03
2022-09-20T15:57:01.826Z,100789.88
2022-09-20T15:59:29.826Z,100800.03
2022-09-20T16:02:05.674Z,100782.84
2022-09-20T16:04:42.772Z,100785.41
2022-09-20T16:07:19.037Z,100785.81
2022-09-20T16:09:51.746Z,100800.41
2022-09-20T16:12:26.349Z,100789.41
2022-09-20T16:14:59.125Z,100786.50
2022-09-20T16:17:48.088Z,100790.19
2022-09-20T16:20:18.513Z,100784.16
2022-09-20T16:22:47.397Z,100784.63
2022-09-20T16:25:17.947Z,100791.66
2022-09-20T16:27:48.948Z,100788.47
2022-09-20T16:30:19.816Z,100789.25
2022-09-20T16:32:49.149Z,100795.78
2022-09-20T16:35:22.076Z,100790.13
2022-09-20T16:37:54.907Z,100786.84
2022-09-20T16:40:22.739Z,100794.56
2022-09-20T16:42:52.397Z,100787.28
2022-09-20T16:45:27.908Z,100792.53
2022-09-20T16:48:04.323Z,100785.25
2022-09-20T16:50:34.611Z,100792.16
2022-09-20T16:53:04.110Z,100786.47
2022-09-20T16:55:34.233Z,100795.78
2022-09-20T16:58:05.475Z,100795.00
2022-09-20T17:00:34.049Z,100796.19
2022-09-20T17:03:04.643Z,100794.16
2022-09-20T17:05:38.496Z,100797.44
2022-09-20T17:08:09.896Z,100801.06
2022-09-20T17:10:37.682Z,100807.94
2022-09-20T17:13:07.539Z,100804.66
2022-09-20T17:15:42.124Z,100812.31
2022-09-20T17:18:14.859Z,100809.91
2022-09-20T17:20:44.089Z,100816.81
2022-09-20T17:23:14.931Z,100819.66
2022-09-20T17:25:46.354Z,100817.63
2022-09-20T17:28:18.016Z,100825.72
2022-09-20T17:30:51.918Z,100827.34
2022-09-20T17:33:22.929Z,100822.50
2022-09-20T17:35:54.909Z,100830.16
2022-09-20T17:38:25.926Z,100840.28
2022-09-20T17:41:14.923Z,100846.72
2022-09-20T17:43:43.671Z,100845.09
2022-09-20T17:46:24.699Z,100847.56
2022-09-20T17:49:00.544Z,100845.53
2022-09-20T17:51:30.501Z,100856.84
2022-09-20T17:53:58.903Z,100854.81
2022-09-20T17:56:31.173Z,100854.03
2022-09-20T17:59:00.442Z,100864.16
2022-09-20T18:01:32.913Z,100854.41
2022-09-20T18:04:03.975Z,100858.47
2022-09-20T18:06:37.058Z,100863.72
2022-09-20T18:09:11.958Z,100862.09
2022-09-20T18:11:48.688Z,100873.88
2022-09-20T18:14:23.141Z,100870.22
2022-09-20T18:16:56.410Z,100877.91
2022-09-20T18:19:23.769Z,100878.72
2022-09-20T18:21:56.342Z,100882.75
2022-09-20T18:24:27.123Z,100879.91
2022-09-20T18:26:54.772Z,100884.38
2022-09-20T18:29:25.153Z,100887.22
2022-09-20T18:31:58.130Z,100894.50
2022-09-20T18:34:34.176Z,100887.63
2022-09-20T18:37:02.974Z,100898.56
2022-09-20T18:39:33.168Z,100900.97
2022-09-20T18:42:03.447Z,100909.09
2022-09-20T18:44:33.983Z,100906.66
2022-09-20T18:47:09.974Z,100912.31
2022-09-20T18:49:40.040Z,100922.84
2022-09-20T18:52:13.076Z,100918.00
2022-09-20T18:54:43.961Z,100926.91
2022-09-20T18:57:12.912Z,100928.94
2022-09-20T18:59:53.812Z,100929.75
2022-09-20T19:02:30.812Z,100935.00
2022-09-20T19:05:15.505Z,100932.97
2022-09-20T19:07:58.257Z,100935.00
2022-09-20T19:10:38.608Z,100954.47
2022-09-20T19:13:32.831Z,100951.22
2022-09-20T19:16:17.358Z,100960.94
2022-09-20T19:19:09.336Z,100960.13
2022-09-20T19:21:54.286Z,100958.91
2022-09-20T19:24:43.360Z,100960.16
2022-09-20T19:27:19.871Z,100966.22
2022-09-20T19:29:47.992Z,100973.09
2022-09-20T19:32:21.678Z,100975.94
2022-09-20T19:35:01.794Z,100978.78
2022-09-20T19:37:47.982Z,100981.22
2022-09-20T19:41:12.572Z,100983.66
2022-09-20T19:44:01.478Z,100983.22
2022-09-20T19:47:01.877Z,100983.66
2022-09-20T19:50:01.043Z,100988.91
2022-09-20T19:52:34.961Z,100989.72
2022-09-20T19:55:03.047Z,100988.09
2022-09-20T19:57:43.825Z,100990.91
2022-09-20T20:00:20.239Z,100997.41
2022-09-20T20:02:49.003Z,101000.66
2022-09-20T20:05:21.118Z,101003.09
2022-09-20T20:08:08.026Z,101001.88
2022-09-20T20:11:16.614Z,101005.50
2022-09-20T20:14:05.740Z,101009.16
2022-09-20T20:16:57.832Z,101006.31
2022-09-20T20:19:40.137Z,101008.34
2022-09-20T20:22:36.184Z,101012.81
2022-09-20T20:25:07.264Z,101016.44
2022-09-20T20:27:36.389Z,101009.97
2022-09-20T20:30:04.879Z,101018.50
2022-09-20T20:32:39.821Z,101021.72
2022-09-20T20:35:08.140Z,101025.38
2022-09-20T20:37:39.932Z,101029.84
2022-09-20T20:40:12.321Z,101031.06
2022-09-20T20:42:40.322Z,101030.63
2022-09-20T20:45:08.988Z,101039.16
2022-09-20T20:47:42.750Z,101036.31
2022-09-20T20:50:16.570Z,101041.19
2022-09-20T20:52:52.023Z,101047.25
2022-09-20T20:55:27.297Z,101050.06
2022-09-20T20:57:58.335Z,101043.59
2022-09-20T21:00:30.161Z,101052.13
2022-09-20T21:03:03.754Z,101049.69
2022-09-20T21:05:39.730Z,101053.72
2022-09-20T21:08:11.498Z,101056.56
2022-09-20T21:10:41.528Z,101055.75
2022-09-20T21:13:09.150Z,101061.84
2022-09-20T21:15:36.712Z,101068.72
2022-09-20T21:18:06.794Z,101066.72
2022-09-20T21:20:38.050Z,101064.69
2022-09-20T21:23:06.798Z,101067.91
2022-09-20T21:25:40.159Z,101074.41
2022-09-20T21:28:11.217Z,101068.72
2022-09-20T21:30:47.687Z,101068.31
2022-09-20T21:33:15.158Z,101078.44
2022-09-20T21:35:43.603Z,101076.03
2022-09-20T21:38:14.177Z,101083.72
2022-09-20T21:40:42.079Z,101080.47
2022-09-20T21:43:09.752Z,101077.63
2022-09-20T21:45:40.329Z,101077.63
2022-09-20T21:48:11.481Z,101084.94
2022-09-20T21:50:39.426Z,101080.06
2022-09-20T21:53:06.952Z,101083.31
2022-09-20T21:55:36.591Z,101084.94
2022-09-20T21:58:06.362Z,101088.16
2022-09-20T22:00:36.607Z,101088.16
2022-09-20T22:03:04.040Z,101088.59
2022-09-20T22:05:34.461Z,101097.47
2022-09-20T22:08:02.401Z,101099.91
2022-09-20T22:10:33.866Z,101093.44
2022-09-20T22:13:04.717Z,101099.91
2022-09-20T22:15:35.362Z,101092.22
2022-09-20T22:18:05.135Z,101088.16
2022-09-20T22:20:35.332Z,101086.56
2022-09-20T22:23:08.922Z,101093.03
2022-09-20T22:25:39.218Z,101094.66
2022-09-20T22:28:06.620Z,101092.63
2022-09-20T22:30:39.824Z,101098.28
2022-09-20T22:33:10.305Z,101093.84
2022-09-20T22:35:44.643Z,101101.53
2022-09-20T22:38:12.097Z,101101.94
2022-09-20T22:40:39.468Z,101097.47
2022-09-20T22:43:10.132Z,101103.97
2022-09-20T22:45:38.263Z,101101.91
2022-09-20T22:48:06.260Z,101095.44
2022-09-20T22:50:39.417Z,101098.66
2022-09-20T22:53:08.106Z,101102.72
2022-09-20T22:55:38.521Z,101112.03
2022-09-20T22:58:11.458Z,101103.16
2022-09-20T23:00:39.575Z,101097.88
2022-09-20T23:03:10.024Z,101103.16
2022-09-20T23:05:40.148Z,101097.88
2022-09-20T23:08:07.698Z,101093.41
2022-09-20T23:10:35.372Z,101096.63
2022-09-20T23:13:02.909Z,101095.84
2022-09-20T23:15:39.071Z,101097.47
2022-09-20T23:18:09.408Z,101100.31
2022-09-20T23:20:39.375Z,101096.69
2022-09-20T23:23:09.393Z,101095.84
2022-09-20T23:25:37.190Z,101095.03
2022-09-20T23:28:06.800Z,101102.34
2022-09-20T23:30:36.972Z,101101.13
2022-09-20T23:33:06.947Z,101095.44
2022-09-20T23:35:42.052Z,101089.78
2022-09-20T23:38:12.364Z,101106.00
2022-09-20T23:40:39.999Z,101101.53
2022-09-20T23:43:14.424Z,101097.91
2022-09-20T23:45:43.512Z,101097.88
2022-09-20T23:48:13.979Z,101101.13
2022-09-20T23:50:43.167Z,101099.91
2022-09-20T23:53:10.862Z,101103.97
2022-09-20T23:55:44.431Z,101106.41
2022-09-20T23:58:18.270Z,101112.47
